Time;durP1;ratioP1;P1;durP2;ratioP2;P2;SDS_P1;SDS_P2;PMS_P1;PMS_P2;Temp;Humidity;BMP_temperature;BMP_pressure;BME280_temperature;BME280_humidity;BME280_pressure;Samples;Min_cycle;Max_cycle;Signal;HPM_P1;HPM_P2
2023/04/29 00:01:58;;;;;;;2.72;2.05;;;13.20;99.50;;;;;;5060148;28;20082;-50
2023/04/29 00:04:25;;;;;;;4.10;2.40;;;13.10;99.80;;;;;;5056234;28;20499;-51
2023/04/29 00:06:50;;;;;;;4.15;2.50;;;13.20;99.70;;;;;;5055639;28;20120;-50
2023/04/29 00:09:16;;;;;;;4.97;2.58;;;13.40;99.70;;;;;;5052335;28;20568;-50
2023/04/29 00:11:42;;;;;;;4.07;2.35;;;13.50;99.50;;;;;;5054225;28;20031;-51
2023/04/29 00:14:07;;;;;;;3.08;2.10;;;13.60;99.40;;;;;;5054230;28;20025;-52
2023/04/29 00:16:33;;;;;;;3.42;2.42;;;13.10;99.90;;;;;;5040609;28;20033;-51
2023/04/29 00:18:59;;;;;;;3.38;2.45;;;13.00;99.90;;;;;;5033814;28;20040;-51
2023/04/29 00:21:26;;;;;;;4.35;2.65;;;13.00;99.90;;;;;;5034372;28;20044;-50
2023/04/29 00:23:52;;;;;;;4.35;2.65;;;13.10;99.90;;;;;;5059972;28;20063;-52
2023/04/29 00:26:18;;;;;;;4.93;2.40;;;13.10;99.90;;;;;;5054637;28;20098;-50
2023/04/29 00:28:43;;;;;;;3.65;2.20;;;13.10;99.90;;;;;;5055576;28;20464;-51
2023/04/29 00:31:09;;;;;;;5.13;3.13;;;13.20;99.90;;;;;;5043807;28;20464;-51
2023/04/29 00:33:35;;;;;;;5.15;2.90;;;13.30;99.90;;;;;;5048315;28;20089;-50
2023/04/29 00:36:01;;;;;;;4.13;2.70;;;13.50;99.90;;;;;;5051163;28;20068;-52
2023/04/29 00:38:27;;;;;;;5.68;2.97;;;13.80;99.90;;;;;;5051335;28;20120;-50
2023/04/29 00:40:54;;;;;;;2.40;1.92;;;13.70;99.90;;;;;;5048192;28;20485;-50
2023/04/29 00:43:20;;;;;;;7.30;2.95;;;13.20;99.30;;;;;;5057158;28;20061;-51
2023/04/29 00:45:46;;;;;;;1.65;1.55;;;12.80;99.90;;;;;;5057833;28;20064;-50
2023/04/29 00:48:14;;;;;;;5.00;2.85;;;12.60;99.90;;;;;;5054782;28;20449;-52
2023/04/29 00:50:41;;;;;;;4.80;2.97;;;12.60;99.90;;;;;;5058543;28;20057;-50
2023/04/29 00:53:08;;;;;;;4.25;3.00;;;12.90;99.90;;;;;;5060969;28;20036;-51
2023/04/29 00:55:35;;;;;;;4.45;2.63;;;13.10;99.90;;;;;;5076753;28;20048;-50
2023/04/29 00:58:02;;;;;;;5.15;2.72;;;13.30;99.90;;;;;;5075625;28;20032;-50
2023/04/29 01:00:29;;;;;;;4.63;2.95;;;13.40;99.90;;;;;;5079306;28;20056;-50
2023/04/29 01:02:56;;;;;;;4.50;2.22;;;13.40;99.90;;;;;;5081645;28;20074;-51
2023/04/29 01:05:23;;;;;;;5.43;2.80;;;13.50;99.90;;;;;;5073234;28;20033;-51
2023/04/29 01:07:56;;;;;;;6.15;2.95;;;13.30;99.90;;;;;;5075439;28;20040;-51
2023/04/29 01:10:27;;;;;;;3.53;2.85;;;13.60;99.90;;;;;;5082338;28;20105;-51
2023/04/29 01:13:20;;;;;;;3.75;2.70;;;13.70;99.90;;;;;;5083283;28;20032;-51
2023/04/29 01:16:10;;;;;;;4.03;2.90;;;13.80;99.90;;;;;;5063945;28;20106;-50
2023/04/29 01:18:45;;;;;;;4.53;2.60;;;13.90;99.90;;;;;;4984169;28;20042;-50
2023/04/29 01:21:10;;;;;;;3.92;2.78;;;14.00;99.90;;;;;;4999243;28;20116;-51
2023/04/29 01:23:36;;;;;;;3.80;2.60;;;13.80;99.90;;;;;;5005431;28;20113;-50
2023/04/29 01:26:02;;;;;;;4.38;2.85;;;13.60;99.90;;;;;;4989778;28;20579;-51
2023/04/29 01:28:42;;;;;;;4.38;1.83;;;13.20;99.90;;;;;;5005353;28;20453;-49
2023/04/29 01:31:19;;;;;;;4.00;2.20;;;12.70;99.90;;;;;;4998985;28;20133;-50
2023/04/29 01:33:47;;;;;;;2.90;2.33;;;12.50;99.90;;;;;;5004705;28;20501;-49
2023/04/29 01:36:36;;;;;;;3.30;2.67;;;12.30;99.90;;;;;;5002362;28;20026;-50
2023/04/29 01:39:21;;;;;;;4.82;2.20;;;12.30;99.90;;;;;;4999847;28;20043;-49
2023/04/29 01:41:52;;;;;;;2.97;1.35;;;12.20;99.90;;;;;;5006671;28;20528;-49
2023/04/29 01:44:23;;;;;;;6.82;2.55;;;12.20;99.90;;;;;;5003382;28;20034;-51
2023/04/29 01:46:53;;;;;;;22.70;2.50;;;12.20;99.90;;;;;;5004438;28;20049;-50
2023/04/29 01:49:21;;;;;;;2.78;2.03;;;12.20;99.90;;;;;;5037785;28;20047;-49
2023/04/29 01:51:46;;;;;;;4.85;2.90;;;12.30;99.90;;;;;;5074485;28;20062;-49
2023/04/29 01:54:12;;;;;;;3.55;2.30;;;12.30;99.90;;;;;;5082274;28;20048;-49
2023/04/29 01:56:38;;;;;;;3.03;2.08;;;12.30;99.90;;;;;;5081239;28;20071;-50
2023/04/29 01:59:03;;;;;;;3.33;2.65;;;12.20;99.90;;;;;;5081629;28;20028;-50
2023/04/29 02:01:30;;;;;;;2.63;2.05;;;12.30;99.90;;;;;;5076296;28;20033;-50
2023/04/29 02:03:56;;;;;;;1.80;1.58;;;12.20;99.90;;;;;;5077119;28;20537;-49
2023/04/29 02:06:21;;;;;;;2.45;1.52;;;12.10;99.90;;;;;;5081325;28;20027;-50
2023/04/29 02:08:47;;;;;;;5.60;3.53;;;12.00;99.90;;;;;;5039271;28;20032;-50
2023/04/29 02:11:13;;;;;;;5.45;2.55;;;12.00;99.90;;;;;;5091614;28;20089;-49
2023/04/29 02:13:39;;;;;;;6.95;2.42;;;12.00;99.90;;;;;;5072740;28;20029;-50
2023/04/29 02:16:09;;;;;;;1.42;1.33;;;12.00;99.90;;;;;;5079200;28;20533;-50
2023/04/29 02:18:35;;;;;;;1.83;1.65;;;12.00;99.90;;;;;;5036695;28;20618;-51
2023/04/29 02:21:01;;;;;;;1.50;1.40;;;12.00;99.90;;;;;;5072282;28;20115;-50
2023/04/29 02:23:27;;;;;;;1.98;1.83;;;12.00;99.90;;;;;;5075299;28;20040;-49
2023/04/29 02:25:53;;;;;;;3.55;2.42;;;12.00;99.90;;;;;;5048642;28;20494;-50
2023/04/29 02:28:18;;;;;;;4.82;3.53;;;12.00;99.90;;;;;;5086352;28;20032;-49
2023/04/29 02:30:44;;;;;;;5.45;2.67;;;12.10;99.90;;;;;;5083806;28;20124;-50
2023/04/29 02:33:10;;;;;;;3.67;2.38;;;12.30;99.90;;;;;;5049068;28;20361;-50
2023/04/29 02:35:36;;;;;;;6.75;4.22;;;12.60;99.90;;;;;;5027956;28;20067;-49
2023/04/29 02:38:01;;;;;;;5.18;3.40;;;12.80;99.90;;;;;;5071208;28;20507;-50
2023/04/29 02:40:28;;;;;;;4.53;3.08;;;;;;;;;;5085566;28;20495;-50
2023/04/29 02:42:53;;;;;;;5.32;2.95;;;13.20;99.90;;;;;;5078937;28;20045;-50
2023/04/29 02:45:20;;;;;;;3.92;2.67;;;13.20;99.90;;;;;;5082493;28;20029;-50
2023/04/29 02:47:46;;;;;;;3.20;2.30;;;13.10;99.90;;;;;;5079345;28;20037;-50
2023/04/29 02:50:11;;;;;;;4.65;3.30;;;13.00;99.90;;;;;;5045839;28;20178;-49
2023/04/29 02:52:37;;;;;;;5.13;2.72;;;12.90;99.90;;;;;;5080879;28;20419;-50
2023/04/29 02:55:03;;;;;;;5.45;2.72;;;13.10;99.90;;;;;;5085473;28;20056;-50
2023/04/29 02:57:29;;;;;;;3.78;2.45;;;13.20;99.90;;;;;;5038989;28;20037;-50
2023/04/29 02:59:54;;;;;;;4.18;3.15;;;13.20;99.90;;;;;;5072975;28;20081;-49
2023/04/29 03:02:20;;;;;;;7.93;4.13;;;13.30;99.90;;;;;;5075700;28;20068;-50
2023/04/29 03:04:46;;;;;;;4.72;2.67;;;13.10;99.90;;;;;;5042880;28;20048;-50
2023/04/29 03:07:11;;;;;;;4.38;2.40;;;13.00;99.90;;;;;;5080037;28;20033;-51
2023/04/29 03:09:37;;;;;;;2.15;1.95;;;12.80;99.90;;;;;;5076287;28;20075;-49
2023/04/29 03:12:03;;;;;;;4.20;3.15;;;12.70;99.90;;;;;;5082266;28;20456;-50
2023/04/29 03:14:29;;;;;;;4.30;2.72;;;12.80;99.90;;;;;;5076073;28;20032;-51
2023/04/29 03:16:55;;;;;;;3.22;2.55;;;13.00;99.90;;;;;;5039258;28;20097;-51
2023/04/29 03:19:21;;;;;;;5.47;2.65;;;13.20;99.90;;;;;;5084315;28;20383;-50
2023/04/29 03:21:47;;;;;;;3.20;2.20;;;13.30;99.90;;;;;;5077582;28;20038;-50
2023/04/29 03:24:12;;;;;;;6.45;2.97;;;13.40;99.90;;;;;;5038239;28;20040;-51
2023/04/29 03:26:38;;;;;;;5.28;2.45;;;13.40;99.90;;;;;;5071436;28;20482;-50
2023/04/29 03:29:04;;;;;;;6.03;2.92;;;13.40;99.90;;;;;;5074080;28;20445;-50
2023/04/29 03:31:29;;;;;;;3.13;2.22;;;13.60;99.90;;;;;;5077045;28;20032;-50
2023/04/29 03:33:55;;;;;;;5.07;2.78;;;13.50;99.90;;;;;;5035532;28;20047;-51
2023/04/29 03:36:21;;;;;;;5.13;3.20;;;13.60;99.90;;;;;;5071681;28;20597;-51
2023/04/29 03:38:46;;;;;;;3.22;2.47;;;13.60;99.90;;;;;;5033740;28;20060;-50
2023/04/29 03:41:12;;;;;;;4.35;3.03;;;13.70;99.90;;;;;;5078026;28;20058;-50
2023/04/29 03:43:38;;;;;;;5.30;3.13;;;13.80;99.90;;;;;;5083267;28;20032;-50
2023/04/29 03:46:03;;;;;;;8.43;4.38;;;13.80;99.90;;;;;;5038946;28;20043;-51
2023/04/29 03:48:30;;;;;;;8.20;4.35;;;13.90;99.90;;;;;;5032688;28;20094;-50
2023/04/29 03:50:55;;;;;;;10.32;5.20;;;13.90;99.90;;;;;;5076465;28;20131;-50
2023/04/29 03:53:21;;;;;;;6.90;3.92;;;14.00;99.90;;;;;;5077114;28;20111;-50
2023/04/29 03:55:47;;;;;;;6.20;2.92;;;14.00;99.90;;;;;;5042885;28;20107;-50
2023/04/29 03:58:13;;;;;;;5.93;2.70;;;14.10;99.90;;;;;;5040892;28;20039;-51
2023/04/29 04:00:39;;;;;;;3.28;2.78;;;13.90;99.90;;;;;;5080975;28;20026;-50
2023/04/29 04:03:05;;;;;;;3.47;2.72;;;13.60;99.90;;;;;;5075348;28;20072;-50
2023/04/29 04:05:30;;;;;;;5.43;2.00;;;13.40;99.90;;;;;;5069557;28;20376;-51
2023/04/29 04:07:56;;;;;;;4.28;2.90;;;13.40;99.90;;;;;;5065386;28;20020;-50
2023/04/29 04:10:22;;;;;;;6.75;3.00;;;13.60;99.90;;;;;;5072870;28;20493;-50
2023/04/29 04:12:47;;;;;;;5.50;2.50;;;13.60;99.90;;;;;;5069964;28;20036;-51
2023/04/29 04:15:13;;;;;;;5.70;2.83;;;13.60;99.90;;;;;;5076583;28;20043;-51
2023/04/29 04:17:39;;;;;;;4.60;2.47;;;13.70;99.90;;;;;;5005284;28;20036;-50
2023/04/29 04:20:05;;;;;;;3.45;2.47;;;13.50;99.90;;;;;;5083832;28;20119;-50
2023/04/29 04:22:31;;;;;;;3.80;2.45;;;13.50;99.90;;;;;;5049201;28;20028;-50
2023/04/29 04:24:57;;;;;;;4.15;2.78;;;13.40;99.90;;;;;;5017568;28;20029;-51
2023/04/29 04:27:23;;;;;;;3.20;2.42;;;13.40;99.90;;;;;;5073998;28;20074;-51
2023/04/29 04:29:53;;;;;;;3.55;2.47;;;13.40;99.90;;;;;;5076036;28;20178;-52
2023/04/29 04:32:20;;;;;;;2.53;1.98;;;13.40;99.90;;;;;;5077836;28;20020;-51
2023/04/29 04:34:47;;;;;;;3.38;2.30;;;13.40;99.90;;;;;;5059685;28;20126;-51
2023/04/29 04:37:13;;;;;;;3.83;2.22;;;13.30;99.90;;;;;;5069906;28;20036;-51
2023/04/29 04:39:38;;;;;;;4.15;2.15;;;13.30;99.90;;;;;;5029261;28;20060;-51
2023/04/29 04:42:04;;;;;;;4.55;2.47;;;13.20;99.90;;;;;;5045690;28;20024;-50
2023/04/29 04:44:30;;;;;;;5.60;2.47;;;13.20;99.90;;;;;;5078116;28;20029;-50
2023/04/29 04:46:56;;;;;;;3.45;2.25;;;13.20;99.90;;;;;;5069469;28;20370;-50
2023/04/29 04:49:24;;;;;;;3.13;2.08;;;13.30;99.90;;;;;;5046777;28;20033;-52
2023/04/29 04:51:50;;;;;;;3.30;1.77;;;13.40;99.90;;;;;;5085259;28;20039;-50
2023/04/29 04:54:16;;;;;;;5.20;2.60;;;13.50;99.90;;;;;;5074975;28;20479;-52
2023/04/29 04:56:41;;;;;;;2.33;1.70;;;13.50;99.90;;;;;;5044712;28;20131;-51
2023/04/29 04:59:07;;;;;;;4.35;2.22;;;13.60;99.90;;;;;;5077966;28;20060;-50
2023/04/29 05:01:33;;;;;;;5.30;2.92;;;13.70;99.90;;;;;;5071918;28;20033;-51
2023/04/29 05:03:59;;;;;;;6.00;2.95;;;13.70;99.90;;;;;;5072807;28;20103;-50
2023/04/29 05:06:25;;;;;;;4.13;2.22;;;13.70;99.90;;;;;;5041278;28;20094;-50
2023/04/29 05:08:51;;;;;;;2.28;1.75;;;13.70;99.90;;;;;;5080926;28;20028;-51
2023/04/29 05:11:17;;;;;;;2.28;1.60;;;13.80;99.90;;;;;;5076817;28;20040;-51
2023/04/29 05:13:43;;;;;;;2.67;1.80;;;13.90;99.90;;;;;;5059833;28;20036;-50
2023/04/29 05:16:09;;;;;;;3.05;2.30;;;13.90;99.90;;;;;;5085733;28;20028;-51
2023/04/29 05:18:35;;;;;;;1.60;1.45;;;14.10;99.90;;;;;;5054278;28;20039;-51
2023/04/29 05:21:01;;;;;;;3.47;2.00;;;14.30;99.90;;;;;;5077446;28;20063;-52
2023/04/29 05:23:27;;;;;;;4.57;2.35;;;14.30;99.90;;;;;;5072629;28;20047;-50
2023/04/29 05:25:52;;;;;;;4.03;1.88;;;14.30;99.90;;;;;;5071419;28;20039;-51
2023/04/29 05:28:18;;;;;;;5.70;2.40;;;14.30;99.90;;;;;;5080028;28;20031;-52
2023/04/29 05:30:44;;;;;;;2.67;2.05;;;14.30;99.90;;;;;;5082804;28;20483;-50
2023/04/29 05:33:10;;;;;;;4.28;2.13;;;14.40;99.90;;;;;;5079930;28;20031;-50
2023/04/29 05:35:36;;;;;;;3.80;2.17;;;14.40;99.90;;;;;;5030718;28;20044;-50
2023/04/29 05:38:02;;;;;;;4.05;2.15;;;14.80;99.90;;;;;;5087136;28;20024;-52
2023/04/29 05:40:28;;;;;;;3.92;1.80;;;15.10;99.90;;;;;;5076116;28;20024;-51
2023/04/29 05:42:54;;;;;;;3.85;1.80;;;15.20;99.90;;;;;;5050364;28;20119;-50
2023/04/29 05:45:20;;;;;;;1.95;1.73;;;15.40;99.90;;;;;;5066724;28;20074;-50
2023/04/29 05:47:46;;;;;;;2.03;1.50;;;;;;;;;;5078547;28;20495;-51
2023/04/29 05:50:12;;;;;;;2.97;1.60;;;15.60;99.90;;;;;;5077518;28;20029;-50
2023/04/29 05:52:38;;;;;;;2.72;1.92;;;15.60;99.90;;;;;;5084896;28;20610;-51
2023/04/29 05:55:04;;;;;;;1.88;1.45;;;15.80;99.90;;;;;;5076723;28;20446;-51
2023/04/29 05:57:30;;;;;;;3.63;1.92;;;16.00;99.90;;;;;;4986316;28;20052;-51
2023/04/29 05:59:59;;;;;;;4.47;1.63;;;15.90;99.90;;;;;;5008371;28;20044;-50
2023/04/29 06:02:25;;;;;;;3.42;1.77;;;15.90;99.90;;;;;;5067398;28;20461;-51
2023/04/29 06:04:51;;;;;;;6.30;2.17;;;16.00;99.90;;;;;;5085638;28;20020;-50
2023/04/29 06:07:17;;;;;;;5.30;2.40;;;16.20;99.90;;;;;;5015223;28;20688;-51
2023/04/29 06:09:43;;;;;;;4.10;2.45;;;16.10;99.90;;;;;;5032207;28;20049;-50
2023/04/29 06:12:09;;;;;;;5.07;2.70;;;16.10;99.90;;;;;;5076798;28;20020;-52
2023/04/29 06:14:35;;;;;;;4.80;2.20;;;16.20;99.90;;;;;;5064514;28;20046;-52
2023/04/29 06:17:01;;;;;;;5.47;2.17;;;16.10;99.90;;;;;;5066621;28;20032;-53
2023/04/29 06:19:27;;;;;;;4.72;2.58;;;16.10;99.90;;;;;;5074958;28;20446;-52
2023/04/29 06:21:52;;;;;;;4.50;2.45;;;16.00;99.90;;;;;;5044901;28;20399;-52
2023/04/29 06:24:18;;;;;;;6.53;2.53;;;15.80;99.90;;;;;;5072505;28;20482;-53
2023/04/29 06:26:44;;;;;;;5.50;2.30;;;15.70;99.90;;;;;;5016266;28;20372;-51
2023/04/29 06:29:10;;;;;;;3.50;2.20;;;15.80;99.90;;;;;;5083199;28;20035;-52
2023/04/29 06:31:36;;;;;;;2.80;2.35;;;16.00;99.90;;;;;;5037882;28;20048;-51
2023/04/29 06:34:01;;;;;;;4.63;2.38;;;16.10;99.90;;;;;;5038431;28;20372;-51
2023/04/29 06:36:27;;;;;;;3.03;1.92;;;16.10;99.90;;;;;;5028465;28;20048;-51
2023/04/29 06:38:53;;;;;;;4.78;2.13;;;16.10;99.90;;;;;;5029209;28;20043;-51
2023/04/29 06:41:18;;;;;;;2.63;1.67;;;16.20;99.90;;;;;;5038907;28;20045;-52
2023/04/29 06:43:44;;;;;;;3.05;2.03;;;15.80;99.90;;;;;;5003447;28;20053;-52
2023/04/29 06:46:11;;;;;;;4.00;2.50;;;15.80;99.90;;;;;;5035166;28;20518;-53
2023/04/29 06:48:37;;;;;;;3.17;1.80;;;16.10;99.90;;;;;;5038151;28;20033;-51
2023/04/29 06:51:02;;;;;;;2.90;1.65;;;16.20;99.90;;;;;;5033778;28;20099;-52
2023/04/29 06:53:28;;;;;;;3.00;2.30;;;16.20;99.90;;;;;;5024681;28;20033;-52
2023/04/29 06:55:54;;;;;;;3.80;2.15;;;16.20;99.90;;;;;;5001846;28;20041;-50
2023/04/29 06:58:20;;;;;;;3.63;1.80;;;16.30;99.90;;;;;;4982479;28;20057;-51
2023/04/29 07:00:48;;;;;;;4.85;2.60;;;16.30;99.90;;;;;;5003798;28;20046;-50
2023/04/29 07:03:15;;;;;;;3.85;2.33;;;16.30;99.90;;;;;;5061951;28;20674;-51
2023/04/29 07:05:44;;;;;;;2.58;1.88;;;16.40;99.90;;;;;;5025215;28;20036;-51
2023/04/29 07:08:10;;;;;;;5.28;2.20;;;16.40;99.90;;;;;;5074779;28;20029;-51
2023/04/29 07:10:36;;;;;;;2.88;2.20;;;16.50;99.90;;;;;;5075330;28;20044;-50
2023/04/29 07:13:01;;;;;;;2.65;1.80;;;16.60;99.90;;;;;;5073231;28;20027;-52
2023/04/29 07:15:29;;;;;;;9.82;2.17;;;16.70;99.90;;;;;;5081198;28;20035;-51
2023/04/29 07:17:55;;;;;;;3.20;1.92;;;16.70;99.90;;;;;;5074399;28;20093;-51
2023/04/29 07:20:21;;;;;;;3.38;1.75;;;16.70;99.90;;;;;;5082595;28;20124;-52
2023/04/29 07:22:46;;;;;;;3.55;1.80;;;16.80;99.90;;;;;;5073794;28;20075;-51
2023/04/29 07:25:13;;;;;;;2.75;1.77;;;16.80;99.90;;;;;;5074749;28;20025;-51
2023/04/29 07:27:39;;;;;;;2.75;1.90;;;16.90;99.90;;;;;;5049192;28;20433;-52
2023/04/29 07:30:05;;;;;;;3.53;1.67;;;16.70;99.90;;;;;;5065148;28;20090;-51
2023/04/29 07:32:31;;;;;;;3.05;1.75;;;16.70;99.90;;;;;;4992899;28;20036;-51
2023/04/29 07:34:58;;;;;;;3.05;1.60;;;16.60;99.90;;;;;;5032667;28;20468;-50
2023/04/29 07:37:24;;;;;;;4.43;2.33;;;16.30;99.90;;;;;;5076440;28;20053;-52
2023/04/29 07:39:50;;;;;;;5.32;2.60;;;16.20;99.90;;;;;;5072089;28;20056;-51
2023/04/29 07:42:16;;;;;;;2.70;1.67;;;16.30;99.90;;;;;;5071222;28;20036;-51
2023/04/29 07:44:41;;;;;;;3.97;2.00;;;16.30;99.90;;;;;;5076931;28;20614;-51
2023/04/29 07:47:07;;;;;;;2.20;1.60;;;16.50;99.90;;;;;;5014285;28;20126;-51
2023/04/29 07:49:34;;;;;;;2.70;1.80;;;16.70;99.90;;;;;;5061807;28;20055;-51
2023/04/29 07:52:01;;;;;;;4.82;2.10;;;16.60;99.90;;;;;;5071965;28;20378;-51
2023/04/29 07:54:26;;;;;;;2.10;1.60;;;16.70;99.90;;;;;;5078496;28;20182;-51
2023/04/29 07:56:52;;;;;;;3.55;1.90;;;17.00;99.90;;;;;;5034086;28;20134;-52
2023/04/29 07:59:18;;;;;;;2.67;1.90;;;17.10;99.90;;;;;;5076994;28;20130;-50
2023/04/29 08:01:44;;;;;;;2.22;1.83;;;17.00;99.60;;;;;;5080954;28;20039;-52
2023/04/29 08:04:09;;;;;;;3.10;1.88;;;17.30;99.90;;;;;;5055571;28;20036;-51
2023/04/29 08:06:35;;;;;;;3.67;2.28;;;17.00;99.90;;;;;;5070480;28;20055;-51
2023/04/29 08:09:01;;;;;;;3.38;2.03;;;;;;;;;;5036706;28;20044;-51
2023/04/29 08:11:27;;;;;;;3.03;2.00;;;17.50;99.90;;;;;;5076882;28;20032;-52
2023/04/29 08:13:53;;;;;;;2.67;2.10;;;17.60;99.90;;;;;;5072661;28;20044;-53
2023/04/29 08:16:20;;;;;;;3.45;1.90;;;17.30;99.90;;;;;;5045780;28;20047;-54
2023/04/29 08:18:46;;;;;;;3.65;1.90;;;17.20;99.80;;;;;;5064514;28;20054;-52
2023/04/29 08:21:11;;;;;;;4.45;2.60;;;17.50;99.40;;;;;;5066935;28;20679;-53
2023/04/29 08:23:38;;;;;;;5.03;2.17;;;17.40;99.60;;;;;;5070886;28;20518;-52
2023/04/29 08:26:04;;;;;;;4.10;2.22;;;17.60;99.80;;;;;;5072412;28;20051;-52
2023/04/29 08:28:30;;;;;;;4.25;2.30;;;17.70;99.50;;;;;;5068083;28;20059;-53
2023/04/29 08:30:56;;;;;;;3.00;2.22;;;17.70;99.70;;;;;;5075402;28;20150;-53
2023/04/29 08:33:22;;;;;;;3.42;2.00;;;18.00;99.90;;;;;;5043016;28;20028;-53
2023/04/29 08:35:48;;;;;;;3.78;2.25;;;;;;;;;;5039551;28;20534;-50
2023/04/29 08:38:14;;;;;;;6.72;2.58;;;18.00;99.90;;;;;;5076140;28;20028;-52
2023/04/29 08:40:42;;;;;;;4.40;2.35;;;18.30;99.40;;;;;;5044421;28;20095;-51
2023/04/29 08:43:09;;;;;;;3.50;2.28;;;18.50;99.30;;;;;;5082583;28;20107;-51
2023/04/29 08:45:35;;;;;;;3.90;2.25;;;18.00;99.50;;;;;;5049724;28;20782;-51
2023/04/29 08:48:06;;;;;;;2.58;1.92;;;17.90;99.30;;;;;;5075095;28;20118;-51
2023/04/29 08:50:38;;;;;;;3.20;1.83;;;18.20;99.70;;;;;;5040824;28;20055;-51
2023/04/29 08:53:08;;;;;;;2.88;2.10;;;18.40;99.30;;;;;;5070534;28;20032;-52
2023/04/29 08:55:46;;;;;;;3.33;2.08;;;18.20;99.40;;;;;;5071884;28;20127;-52
2023/04/29 08:58:13;;;;;;;2.83;1.60;;;;;;;;;;5075808;28;20115;-51
2023/04/29 09:00:40;;;;;;;2.78;2.25;;;;;;;;;;5078367;28;20472;-51
2023/04/29 09:03:26;;;;;;;2.90;1.73;;;;;;;;;;5080906;28;20037;-51
2023/04/29 09:05:54;;;;;;;2.90;1.98;;;;;;;;;;5048595;28;20035;-53
2023/04/29 09:08:22;;;;;;;4.10;2.33;;;;;;;;;;5076299;28;20127;-50
2023/04/29 09:10:49;;;;;;;3.33;2.55;;;19.50;99.90;;;;;;5077263;28;20047;-51
2023/04/29 09:13:29;;;;;;;3.53;2.38;;;19.40;99.10;;;;;;5079644;28;20036;-52
2023/04/29 09:15:56;;;;;;;5.00;2.10;;;19.90;99.90;;;;;;5076147;28;20028;-52
2023/04/29 09:18:47;;;;;;;3.20;2.15;;;19.90;99.90;;;;;;5072120;28;20070;-51
2023/04/29 09:21:21;;;;;;;3.55;2.05;;;19.80;98.00;;;;;;5076588;28;20025;-51
2023/04/29 09:23:52;;;;;;;4.93;2.40;;;20.00;99.90;;;;;;5045711;28;20037;-51
2023/04/29 09:26:18;;;;;;;5.50;2.53;;;20.20;99.90;;;;;;5084535;28;20035;-50
2023/04/29 09:28:46;;;;;;;2.90;2.20;;;19.70;98.10;;;;;;5075485;28;20085;-51
2023/04/29 09:31:13;;;;;;;4.97;2.45;;;19.20;99.90;;;;;;5084015;28;20554;-52
2023/04/29 09:33:56;;;;;;;4.60;2.53;;;19.30;99.70;;;;;;5082623;28;20024;-51
2023/04/29 09:36:39;;;;;;;3.15;2.22;;;19.60;99.20;;;;;;5073973;28;20029;-51
2023/04/29 09:39:10;;;;;;;4.13;2.75;;;19.30;98.10;;;;;;5034447;28;20064;-53
2023/04/29 09:41:40;;;;;;;7.45;2.90;;;19.80;99.80;;;;;;5073336;28;20039;-52
2023/04/29 09:44:07;;;;;;;4.78;2.22;;;20.10;98.70;;;;;;5075859;28;20467;-52
2023/04/29 09:46:35;;;;;;;4.88;2.65;;;19.90;99.00;;;;;;5072627;28;20036;-51
2023/04/29 09:49:03;;;;;;;4.47;2.05;;;20.20;99.40;;;;;;5084016;28;20040;-51
2023/04/29 09:51:32;;;;;;;5.70;3.13;;;20.50;98.20;;;;;;5078370;28;20041;-52
2023/04/29 09:54:00;;;;;;;3.08;2.15;;;20.80;97.80;;;;;;5069903;28;20080;-52
2023/04/29 09:56:30;;;;;;;4.95;2.60;;;;;;;;;;5068922;28;20041;-51
2023/04/29 09:59:08;;;;;;;4.07;2.65;;;;;;;;;;5070328;28;20039;-52
2023/04/29 10:01:34;;;;;;;2.65;1.67;;;;;;;;;;4983023;28;20039;-52
2023/04/29 10:04:00;;;;;;;3.38;2.40;;;20.60;99.90;;;;;;5047552;28;20032;-53
2023/04/29 10:06:27;;;;;;;5.45;2.83;;;21.00;99.90;;;;;;5024159;28;20393;-52
2023/04/29 10:08:53;;;;;;;3.95;2.35;;;21.30;97.30;;;;;;5078174;28;20463;-52
2023/04/29 10:11:20;;;;;;;3.10;2.40;;;20.70;97.20;;;;;;5043251;28;20121;-54
2023/04/29 10:13:49;;;;;;;4.80;2.85;;;21.20;97.20;;;;;;5079307;28;20036;-52
2023/04/29 10:16:22;;;;;;;3.90;2.20;;;;;;;;;;5077675;28;20028;-51
2023/04/29 10:18:52;;;;;;;4.38;2.70;;;22.30;98.40;;;;;;5082861;28;20487;-53
2023/04/29 10:21:25;;;;;;;5.97;3.13;;;22.60;97.00;;;;;;4989770;28;20084;-52
2023/04/29 10:23:52;;;;;;;5.10;2.65;;;23.00;98.00;;;;;;5002395;28;20125;-52
2023/04/29 10:26:19;;;;;;;5.05;3.05;;;22.90;99.90;;;;;;5009553;28;20794;-52
2023/04/29 10:28:46;;;;;;;5.05;3.42;;;;;;;;;;4974279;28;20061;-53
2023/04/29 10:31:15;;;;;;;5.97;2.60;;;23.40;99.70;;;;;;5015709;28;20493;-52
2023/04/29 10:33:44;;;;;;;5.32;2.33;;;;;;;;;;5017233;28;20418;-53
2023/04/29 10:36:11;;;;;;;3.45;2.15;;;;;;;;;;4986572;28;20077;-53
2023/04/29 10:38:41;;;;;;;4.05;2.70;;;;;;;;;;4964901;28;20453;-53
2023/04/29 10:41:24;;;;;;;3.92;2.60;;;24.10;94.90;;;;;;4973436;28;20121;-53
2023/04/29 10:43:51;;;;;;;6.03;3.25;;;;;;;;;;5016283;28;20042;-53
2023/04/29 10:46:21;;;;;;;5.20;2.80;;;24.30;94.90;;;;;;5014461;28;20452;-54
2023/04/29 10:48:48;;;;;;;5.28;2.67;;;24.20;94.80;;;;;;5020708;28;20038;-53
2023/04/29 10:51:30;;;;;;;4.78;2.60;;;;;;;;;;4966328;28;20136;-52
2023/04/29 10:54:00;;;;;;;5.50;3.25;;;;;;;;;;5037955;28;20143;-52
2023/04/29 10:56:39;;;;;;;4.55;2.60;;;;;;;;;;5026931;28;20104;-53
2023/04/29 10:59:05;;;;;;;3.95;2.78;;;;;;;;;;5023003;28;20061;-53
2023/04/29 11:01:51;;;;;;;4.47;2.60;;;;;;;;;;5018762;28;20037;-54
2023/04/29 11:04:18;;;;;;;3.83;2.60;;;;;;;;;;5021887;28;20436;-53
2023/04/29 11:06:52;;;;;;;3.58;2.45;;;24.40;99.90;;;;;;5020717;28;20030;-53
2023/04/29 11:09:29;;;;;;;5.25;2.83;;;24.10;94.40;;;;;;5023226;28;20099;-54
2023/04/29 11:12:00;;;;;;;6.10;2.42;;;23.40;94.10;;;;;;5030093;28;20493;-53
2023/04/29 11:14:49;;;;;;;3.83;2.83;;;23.30;94.40;;;;;;5030369;28;20124;-52
2023/04/29 11:17:18;;;;;;;4.18;2.50;;;23.50;94.50;;;;;;5011613;28;20124;-54
2023/04/29 11:19:49;;;;;;;4.07;2.83;;;23.90;94.50;;;;;;5020956;28;20033;-52
2023/04/29 11:22:18;;;;;;;4.40;2.83;;;24.50;96.80;;;;;;5041733;28;20045;-53
2023/04/29 11:24:55;;;;;;;5.80;3.30;;;24.50;97.70;;;;;;5079921;28;20365;-53
2023/04/29 11:27:24;;;;;;;7.43;3.05;;;;;;;;;;5060599;28;20033;-55
2023/04/29 11:29:51;;;;;;;5.28;3.72;;;;;;;;;;5072666;28;20036;-53
2023/04/29 11:32:21;;;;;;;5.55;3.85;;;;;;;;;;5068329;28;20086;-54
2023/04/29 11:34:46;;;;;;;6.50;3.03;;;24.60;99.90;;;;;;5071144;28;20047;-51
2023/04/29 11:37:17;;;;;;;4.30;2.75;;;24.20;94.40;;;;;;5053588;28;20041;-55
2023/04/29 11:39:43;;;;;;;5.30;2.90;;;24.10;93.50;;;;;;5068992;28;20082;-56
2023/04/29 11:42:09;;;;;;;4.07;2.42;;;;;;;;;;5076708;28;20032;-54
2023/04/29 11:44:35;;;;;;;5.32;3.33;;;;;;;;;;5072450;28;20555;-53
2023/04/29 11:47:07;;;;;;;4.53;2.63;;;25.10;96.70;;;;;;5075832;28;20035;-55
2023/04/29 11:49:34;;;;;;;2.70;2.38;;;25.00;99.20;;;;;;5071657;28;20564;-54
2023/04/29 11:52:00;;;;;;;2.72;1.95;;;;;;;;;;5064764;28;20020;-54
2023/04/29 11:54:26;;;;;;;3.45;2.17;;;;;;;;;;5024384;28;20488;-52
2023/04/29 11:56:54;;;;;;;4.45;3.10;;;25.50;92.10;;;;;;5068022;28;20431;-56
2023/04/29 11:59:21;;;;;;;4.53;1.90;;;25.60;93.40;;;;;;5062309;28;20488;-53
2023/04/29 12:01:50;;;;;;;3.15;1.73;;;25.40;94.50;;;;;;5049132;28;20098;-54
2023/04/29 12:04:19;;;;;;;2.47;2.17;;;25.50;94.50;;;;;;5065476;28;20703;-55
2023/04/29 12:06:45;;;;;;;5.28;2.00;;;25.60;95.00;;;;;;5031850;28;20040;-54
2023/04/29 12:09:11;;;;;;;2.78;2.10;;;25.50;95.40;;;;;;5075079;28;20063;-55
2023/04/29 12:11:37;;;;;;;3.17;2.40;;;25.60;94.40;;;;;;5067055;28;20072;-53
2023/04/29 12:14:05;;;;;;;3.90;2.20;;;25.30;92.80;;;;;;5069980;28;20032;-54
2023/04/29 12:16:32;;;;;;;3.75;2.38;;;25.10;92.40;;;;;;5069049;28;20080;-55
2023/04/29 12:18:58;;;;;;;3.50;2.05;;;;;;;;;;5026224;28;20036;-55
2023/04/29 12:21:26;;;;;;;3.40;1.92;;;;;;;;;;5071873;28;20029;-55
2023/04/29 12:23:52;;;;;;;2.60;1.48;;;;;;;;;;5037137;28;20059;-56
2023/04/29 12:26:19;;;;;;;2.03;1.80;;;;;;;;;;5061210;28;20025;-55
2023/04/29 12:28:47;;;;;;;2.38;1.50;;;26.10;99.90;;;;;;5064790;28;20024;-55
2023/04/29 12:31:14;;;;;;;2.70;1.73;;;26.10;99.90;;;;;;5071298;28;20089;-55
2023/04/29 12:33:45;;;;;;;1.65;1.40;;;26.20;91.90;;;;;;5033780;28;20039;-55
2023/04/29 12:36:18;;;;;;;3.75;1.80;;;25.90;91.80;;;;;;5065976;28;20085;-55
2023/04/29 12:38:44;;;;;;;2.03;1.55;;;25.40;91.70;;;;;;5061881;28;20059;-55
2023/04/29 12:41:13;;;;;;;1.77;1.40;;;25.60;92.30;;;;;;5071165;28;20119;-55
2023/04/29 12:43:40;;;;;;;2.53;1.83;;;25.50;92.60;;;;;;5067931;28;20033;-54
2023/04/29 12:46:08;;;;;;;1.38;1.27;;;24.70;91.60;;;;;;5070120;28;20063;-54
2023/04/29 12:48:40;;;;;;;2.85;1.35;;;24.70;91.50;;;;;;5072664;28;20043;-55
2023/04/29 12:51:09;;;;;;;4.18;1.85;;;24.70;92.40;;;;;;5069756;28;20080;-54
2023/04/29 12:53:35;;;;;;;2.25;1.63;;;24.80;92.20;;;;;;5063337;28;20041;-54
2023/04/29 12:56:01;;;;;;;2.65;1.95;;;24.80;91.60;;;;;;5072174;28;20372;-55
2023/04/29 12:58:31;;;;;;;2.00;1.27;;;24.90;92.10;;;;;;5067835;28;20036;-55
2023/04/29 13:00:57;;;;;;;3.00;1.85;;;24.40;92.10;;;;;;5070127;28;20086;-55